sensor_id;sensor_type;location;lat;lon;timestamp;temperature;humidity
4910;DHT22;2470;49.868;8.660;2023-09-30T00:00:00;18.80;99.90
4910;DHT22;2470;49.868;8.660;2023-09-30T00:02:26;18.80;99.90
4910;DHT22;2470;49.868;8.660;2023-09-30T00:04:52;18.80;99.90
4910;DHT22;2470;49.868;8.660;2023-09-30T00:07:18;18.70;99.90
4910;DHT22;2470;49.868;8.660;2023-09-30T00:09:44;18.80;99.90
4910;DHT22;2470;49.868;8.660;2023-09-30T00:12:09;18.80;99.90
4910;DHT22;2470;49.868;8.660;2023-09-30T00:14:35;18.80;99.90
4910;DHT22;2470;49.868;8.660;2023-09-30T00:17:02;18.80;99.90
4910;DHT22;2470;49.868;8.660;2023-09-30T00:19:28;18.80;99.90
4910;DHT22;2470;49.868;8.660;2023-09-30T00:21:54;18.70;99.90
4910;DHT22;2470;49.868;8.660;2023-09-30T00:24:19;18.70;99.90
4910;DHT22;2470;49.868;8.660;2023-09-30T00:26:45;18.80;99.90
4910;DHT22;2470;49.868;8.660;2023-09-30T00:29:11;18.80;99.90
4910;DHT22;2470;49.868;8.660;2023-09-30T00:31:37;18.80;99.90
4910;DHT22;2470;49.868;8.660;2023-09-30T00:34:02;18.80;99.90
4910;DHT22;2470;49.868;8.660;2023-09-30T00:36:28;18.70;99.90
4910;DHT22;2470;49.868;8.660;2023-09-30T00:38:53;18.60;99.90
4910;DHT22;2470;49.868;8.660;2023-09-30T00:41:19;18.60;99.90
4910;DHT22;2470;49.868;8.660;2023-09-30T00:43:46;18.50;99.90
4910;DHT22;2470;49.868;8.660;2023-09-30T00:46:22;18.60;99.90
4910;DHT22;2470;49.868;8.660;2023-09-30T00:48:51;18.60;99.90
4910;DHT22;2470;49.868;8.660;2023-09-30T00:51:17;18.60;99.90
4910;DHT22;2470;49.868;8.660;2023-09-30T00:53:43;18.60;99.90
4910;DHT22;2470;49.868;8.660;2023-09-30T00:56:09;18.60;99.90
4910;DHT22;2470;49.868;8.660;2023-09-30T00:58:35;18.60;99.90
4910;DHT22;2470;49.868;8.660;2023-09-30T01:01:03;18.50;99.90
4910;DHT22;2470;49.868;8.660;2023-09-30T01:03:29;18.50;99.90
4910;DHT22;2470;49.868;8.660;2023-09-30T01:05:55;18.50;99.90
4910;DHT22;2470;49.868;8.660;2023-09-30T01:08:21;18.50;99.90
4910;DHT22;2470;49.868;8.660;2023-09-30T01:10:47;18.40;99.90
4910;DHT22;2470;49.868;8.660;2023-09-30T01:13:13;18.50;99.90
4910;DHT22;2470;49.868;8.660;2023-09-30T01:15:39;18.50;99.90
4910;DHT22;2470;49.868;8.660;2023-09-30T01:18:04;18.40;99.90
4910;DHT22;2470;49.868;8.660;2023-09-30T01:20:30;18.50;99.90
4910;DHT22;2470;49.868;8.660;2023-09-30T01:22:57;18.50;99.90
4910;DHT22;2470;49.868;8.660;2023-09-30T01:25:24;18.50;99.90
4910;DHT22;2470;49.868;8.660;2023-09-30T01:27:50;18.50;99.90
4910;DHT22;2470;49.868;8.660;2023-09-30T01:30:20;18.60;99.90
4910;DHT22;2470;49.868;8.660;2023-09-30T01:32:47;18.60;99.90
4910;DHT22;2470;49.868;8.660;2023-09-30T01:35:13;18.60;99.90
4910;DHT22;2470;49.868;8.660;2023-09-30T01:37:39;18.60;99.90
4910;DHT22;2470;49.868;8.660;2023-09-30T01:40:05;18.60;99.90
4910;DHT22;2470;49.868;8.660;2023-09-30T01:42:33;18.60;99.90
4910;DHT22;2470;49.868;8.660;2023-09-30T01:44:59;18.60;99.90
4910;DHT22;2470;49.868;8.660;2023-09-30T01:47:24;18.50;99.90
4910;DHT22;2470;49.868;8.660;2023-09-30T01:49:50;18.50;99.90
4910;DHT22;2470;49.868;8.660;2023-09-30T01:52:15;18.40;99.90
4910;DHT22;2470;49.868;8.660;2023-09-30T01:54:41;18.50;99.90
4910;DHT22;2470;49.868;8.660;2023-09-30T01:57:06;18.50;99.90
4910;DHT22;2470;49.868;8.660;2023-09-30T01:59:32;18.50;99.90
4910;DHT22;2470;49.868;8.660;2023-09-30T02:01:58;18.40;99.90
4910;DHT22;2470;49.868;8.660;2023-09-30T02:04:23;18.40;99.90
4910;DHT22;2470;49.868;8.660;2023-09-30T02:06:49;18.40;99.90
4910;DHT22;2470;49.868;8.660;2023-09-30T02:09:14;18.30;99.90
4910;DHT22;2470;49.868;8.660;2023-09-30T02:11:40;18.30;99.90
4910;DHT22;2470;49.868;8.660;2023-09-30T02:14:06;18.30;99.90
4910;DHT22;2470;49.868;8.660;2023-09-30T02:16:32;18.30;99.90
4910;DHT22;2470;49.868;8.660;2023-09-30T02:18:58;18.30;99.90
4910;DHT22;2470;49.868;8.660;2023-09-30T02:21:23;18.30;99.90
4910;DHT22;2470;49.868;8.660;2023-09-30T02:23:49;18.30;99.90
4910;DHT22;2470;49.868;8.660;2023-09-30T02:26:16;18.30;99.90
4910;DHT22;2470;49.868;8.660;2023-09-30T02:28:42;18.30;99.90
4910;DHT22;2470;49.868;8.660;2023-09-30T02:31:08;18.30;99.90
4910;DHT22;2470;49.868;8.660;2023-09-30T02:33:34;18.30;99.90
4910;DHT22;2470;49.868;8.660;2023-09-30T02:36:01;18.30;99.90
4910;DHT22;2470;49.868;8.660;2023-09-30T02:38:27;18.40;99.90
4910;DHT22;2470;49.868;8.660;2023-09-30T02:40:54;18.30;99.90
4910;DHT22;2470;49.868;8.660;2023-09-30T02:43:19;18.30;99.90
4910;DHT22;2470;49.868;8.660;2023-09-30T02:45:46;18.30;99.90
4910;DHT22;2470;49.868;8.660;2023-09-30T02:48:11;18.30;99.90
4910;DHT22;2470;49.868;8.660;2023-09-30T02:50:37;18.20;99.90
4910;DHT22;2470;49.868;8.660;2023-09-30T02:53:03;18.20;99.90
4910;DHT22;2470;49.868;8.660;2023-09-30T02:55:29;18.20;99.90
4910;DHT22;2470;49.868;8.660;2023-09-30T02:57:55;18.20;99.90
4910;DHT22;2470;49.868;8.660;2023-09-30T03:00:21;18.10;99.90
4910;DHT22;2470;49.868;8.660;2023-09-30T03:02:52;18.20;99.90
4910;DHT22;2470;49.868;8.660;2023-09-30T03:05:19;18.20;99.90
4910;DHT22;2470;49.868;8.660;2023-09-30T03:07:45;18.20;99.90
4910;DHT22;2470;49.868;8.660;2023-09-30T03:10:11;18.10;99.90
4910;DHT22;2470;49.868;8.660;2023-09-30T03:12:38;18.10;99.90
4910;DHT22;2470;49.868;8.660;2023-09-30T03:15:04;18.10;99.90
4910;DHT22;2470;49.868;8.660;2023-09-30T03:17:33;18.10;99.90
4910;DHT22;2470;49.868;8.660;2023-09-30T03:19:59;18.10;99.90
4910;DHT22;2470;49.868;8.660;2023-09-30T03:22:26;18.10;99.90
4910;DHT22;2470;49.868;8.660;2023-09-30T03:24:54;18.10;99.90
4910;DHT22;2470;49.868;8.660;2023-09-30T03:27:19;18.00;99.90
4910;DHT22;2470;49.868;8.660;2023-09-30T03:29:45;18.00;99.90
4910;DHT22;2470;49.868;8.660;2023-09-30T03:32:11;17.90;99.90
4910;DHT22;2470;49.868;8.660;2023-09-30T03:34:37;17.90;99.90
4910;DHT22;2470;49.868;8.660;2023-09-30T03:37:02;17.80;99.90
4910;DHT22;2470;49.868;8.660;2023-09-30T03:39:32;17.80;99.90
4910;DHT22;2470;49.868;8.660;2023-09-30T03:41:57;17.80;99.90
4910;DHT22;2470;49.868;8.660;2023-09-30T03:44:24;17.80;99.90
4910;DHT22;2470;49.868;8.660;2023-09-30T03:46:51;17.70;99.90
4910;DHT22;2470;49.868;8.660;2023-09-30T03:49:17;17.70;99.90
4910;DHT22;2470;49.868;8.660;2023-09-30T03:51:45;17.70;99.90
4910;DHT22;2470;49.868;8.660;2023-09-30T03:54:10;17.70;99.90
4910;DHT22;2470;49.868;8.660;2023-09-30T03:56:36;17.60;99.90
4910;DHT22;2470;49.868;8.660;2023-09-30T03:59:04;17.60;99.90
4910;DHT22;2470;49.868;8.660;2023-09-30T04:01:29;17.50;99.90
4910;DHT22;2470;49.868;8.660;2023-09-30T04:03:56;17.50;99.90
4910;DHT22;2470;49.868;8.660;2023-09-30T04:06:22;17.40;99.90
4910;DHT22;2470;49.868;8.660;2023-09-30T04:08:47;17.40;99.90
4910;DHT22;2470;49.868;8.660;2023-09-30T04:11:13;17.40;99.90
4910;DHT22;2470;49.868;8.660;2023-09-30T04:13:44;17.40;99.90
4910;DHT22;2470;49.868;8.660;2023-09-30T04:16:10;17.40;99.90
4910;DHT22;2470;49.868;8.660;2023-09-30T04:18:35;17.40;99.90
4910;DHT22;2470;49.868;8.660;2023-09-30T04:21:01;17.40;99.90
4910;DHT22;2470;49.868;8.660;2023-09-30T04:23:27;17.40;99.90
4910;DHT22;2470;49.868;8.660;2023-09-30T04:25:53;17.40;99.90
4910;DHT22;2470;49.868;8.660;2023-09-30T04:28:18;17.40;99.90
4910;DHT22;2470;49.868;8.660;2023-09-30T04:30:50;17.30;99.90
4910;DHT22;2470;49.868;8.660;2023-09-30T04:33:16;17.30;99.90
4910;DHT22;2470;49.868;8.660;2023-09-30T04:35:43;17.30;99.90
4910;DHT22;2470;49.868;8.660;2023-09-30T04:38:10;17.30;99.90
4910;DHT22;2470;49.868;8.660;2023-09-30T04:40:36;17.40;99.90
4910;DHT22;2470;49.868;8.660;2023-09-30T04:43:03;17.30;99.90
4910;DHT22;2470;49.868;8.660;2023-09-30T04:45:28;17.20;99.90
4910;DHT22;2470;49.868;8.660;2023-09-30T04:47:54;17.10;99.90
4910;DHT22;2470;49.868;8.660;2023-09-30T04:50:21;17.10;99.90
4910;DHT22;2470;49.868;8.660;2023-09-30T04:52:48;17.10;99.90
4910;DHT22;2470;49.868;8.660;2023-09-30T04:55:14;17.10;99.90
4910;DHT22;2470;49.868;8.660;2023-09-30T04:57:45;17.10;99.90
4910;DHT22;2470;49.868;8.660;2023-09-30T05:00:15;17.10;99.90
4910;DHT22;2470;49.868;8.660;2023-09-30T05:02:43;17.00;99.90
4910;DHT22;2470;49.868;8.660;2023-09-30T05:05:10;17.00;99.90
4910;DHT22;2470;49.868;8.660;2023-09-30T05:07:36;17.00;99.90
4910;DHT22;2470;49.868;8.660;2023-09-30T05:10:02;17.10;99.90
4910;DHT22;2470;49.868;8.660;2023-09-30T05:12:31;17.00;99.90
4910;DHT22;2470;49.868;8.660;2023-09-30T05:14:57;17.00;99.90
4910;DHT22;2470;49.868;8.660;2023-09-30T05:17:22;17.00;99.90
4910;DHT22;2470;49.868;8.660;2023-09-30T05:19:48;17.00;99.90
4910;DHT22;2470;49.868;8.660;2023-09-30T05:22:13;17.00;99.90
4910;DHT22;2470;49.868;8.660;2023-09-30T05:24:39;16.90;99.90
4910;DHT22;2470;49.868;8.660;2023-09-30T05:27:04;16.90;99.90
4910;DHT22;2470;49.868;8.660;2023-09-30T05:29:30;16.90;99.90
4910;DHT22;2470;49.868;8.660;2023-09-30T05:31:58;16.90;99.90
4910;DHT22;2470;49.868;8.660;2023-09-30T05:34:24;16.90;99.90
4910;DHT22;2470;49.868;8.660;2023-09-30T05:36:49;16.90;99.90
4910;DHT22;2470;49.868;8.660;2023-09-30T05:39:16;16.90;99.90
4910;DHT22;2470;49.868;8.660;2023-09-30T05:41:45;17.00;99.90
4910;DHT22;2470;49.868;8.660;2023-09-30T05:44:12;17.00;99.90
4910;DHT22;2470;49.868;8.660;2023-09-30T05:46:39;17.00;99.90
4910;DHT22;2470;49.868;8.660;2023-09-30T05:49:05;17.00;99.90
4910;DHT22;2470;49.868;8.660;2023-09-30T05:51:35;16.90;99.90
4910;DHT22;2470;49.868;8.660;2023-09-30T05:54:00;16.90;99.90
4910;DHT22;2470;49.868;8.660;2023-09-30T05:56:26;17.00;99.90
4910;DHT22;2470;49.868;8.660;2023-09-30T05:58:52;17.00;99.90
4910;DHT22;2470;49.868;8.660;2023-09-30T06:01:18;17.10;99.90
4910;DHT22;2470;49.868;8.660;2023-09-30T06:03:48;17.10;99.90
4910;DHT22;2470;49.868;8.660;2023-09-30T06:06:14;17.20;99.90
4910;DHT22;2470;49.868;8.660;2023-09-30T06:08:44;17.20;99.90
4910;DHT22;2470;49.868;8.660;2023-09-30T06:11:19;17.30;99.90
4910;DHT22;2470;49.868;8.660;2023-09-30T06:13:52;17.30;99.90
4910;DHT22;2470;49.868;8.660;2023-09-30T06:16:21;17.30;99.90
4910;DHT22;2470;49.868;8.660;2023-09-30T06:18:46;17.30;99.90
4910;DHT22;2470;49.868;8.660;2023-09-30T06:21:15;17.30;99.90
4910;DHT22;2470;49.868;8.660;2023-09-30T06:23:46;17.30;99.90
4910;DHT22;2470;49.868;8.660;2023-09-30T06:26:13;17.30;99.90
4910;DHT22;2470;49.868;8.660;2023-09-30T06:28:38;17.20;99.90
4910;DHT22;2470;49.868;8.660;2023-09-30T06:31:08;17.20;99.90
4910;DHT22;2470;49.868;8.660;2023-09-30T06:33:37;17.20;99.90
4910;DHT22;2470;49.868;8.660;2023-09-30T06:36:08;17.20;99.90
4910;DHT22;2470;49.868;8.660;2023-09-30T06:38:34;17.20;99.90
4910;DHT22;2470;49.868;8.660;2023-09-30T06:40:59;17.30;99.90
4910;DHT22;2470;49.868;8.660;2023-09-30T06:43:27;17.40;99.90
4910;DHT22;2470;49.868;8.660;2023-09-30T06:45:53;17.50;99.90
4910;DHT22;2470;49.868;8.660;2023-09-30T06:48:19;17.60;99.90
4910;DHT22;2470;49.868;8.660;2023-09-30T06:50:45;17.60;99.90
4910;DHT22;2470;49.868;8.660;2023-09-30T06:53:16;17.70;99.90
4910;DHT22;2470;49.868;8.660;2023-09-30T06:55:42;17.70;99.90
4910;DHT22;2470;49.868;8.660;2023-09-30T06:58:11;17.70;99.90
4910;DHT22;2470;49.868;8.660;2023-09-30T07:00:37;17.70;99.90
4910;DHT22;2470;49.868;8.660;2023-09-30T07:03:03;17.70;99.90
4910;DHT22;2470;49.868;8.660;2023-09-30T07:05:29;17.70;99.90
4910;DHT22;2470;49.868;8.660;2023-09-30T07:07:55;17.70;99.90
4910;DHT22;2470;49.868;8.660;2023-09-30T07:10:20;17.70;99.90
4910;DHT22;2470;49.868;8.660;2023-09-30T07:12:46;17.70;99.90
4910;DHT22;2470;49.868;8.660;2023-09-30T07:15:11;17.80;99.90
4910;DHT22;2470;49.868;8.660;2023-09-30T07:17:39;17.90;99.90
4910;DHT22;2470;49.868;8.660;2023-09-30T07:20:05;17.90;99.90
4910;DHT22;2470;49.868;8.660;2023-09-30T07:22:31;18.00;99.90
4910;DHT22;2470;49.868;8.660;2023-09-30T07:24:57;18.00;99.90
4910;DHT22;2470;49.868;8.660;2023-09-30T07:27:23;18.00;99.90
4910;DHT22;2470;49.868;8.660;2023-09-30T07:29:49;18.00;99.90
4910;DHT22;2470;49.868;8.660;2023-09-30T07:32:15;18.10;99.90
4910;DHT22;2470;49.868;8.660;2023-09-30T07:34:40;18.10;99.90
4910;DHT22;2470;49.868;8.660;2023-09-30T07:37:06;18.20;99.90
4910;DHT22;2470;49.868;8.660;2023-09-30T07:39:31;18.20;99.90
4910;DHT22;2470;49.868;8.660;2023-09-30T07:41:57;18.20;99.90
4910;DHT22;2470;49.868;8.660;2023-09-30T07:44:22;18.30;99.90
4910;DHT22;2470;49.868;8.660;2023-09-30T07:46:48;18.40;99.90
4910;DHT22;2470;49.868;8.660;2023-09-30T07:49:14;18.50;99.90
4910;DHT22;2470;49.868;8.660;2023-09-30T07:51:40;18.50;99.90
4910;DHT22;2470;49.868;8.660;2023-09-30T07:54:06;18.60;99.90
4910;DHT22;2470;49.868;8.660;2023-09-30T07:56:31;18.50;99.90
4910;DHT22;2470;49.868;8.660;2023-09-30T07:58:57;18.50;99.90
4910;DHT22;2470;49.868;8.660;2023-09-30T08:01:23;18.60;99.90
4910;DHT22;2470;49.868;8.660;2023-09-30T08:03:48;18.70;99.90
4910;DHT22;2470;49.868;8.660;2023-09-30T08:06:14;18.70;99.90
4910;DHT22;2470;49.868;8.660;2023-09-30T08:08:40;18.70;99.90
4910;DHT22;2470;49.868;8.660;2023-09-30T08:11:06;18.70;99.90
4910;DHT22;2470;49.868;8.660;2023-09-30T08:13:32;18.70;99.90
4910;DHT22;2470;49.868;8.660;2023-09-30T08:15:58;18.70;99.90
4910;DHT22;2470;49.868;8.660;2023-09-30T08:18:24;18.70;99.90
4910;DHT22;2470;49.868;8.660;2023-09-30T08:20:49;18.60;99.90
4910;DHT22;2470;49.868;8.660;2023-09-30T08:23:15;18.60;99.90
4910;DHT22;2470;49.868;8.660;2023-09-30T08:25:41;18.60;99.90
4910;DHT22;2470;49.868;8.660;2023-09-30T08:28:07;18.60;99.90
4910;DHT22;2470;49.868;8.660;2023-09-30T08:30:37;18.70;99.90
4910;DHT22;2470;49.868;8.660;2023-09-30T08:33:03;18.80;99.90
4910;DHT22;2470;49.868;8.660;2023-09-30T08:35:30;18.80;99.90
4910;DHT22;2470;49.868;8.660;2023-09-30T08:37:55;18.90;99.90
4910;DHT22;2470;49.868;8.660;2023-09-30T08:40:21;18.90;99.90
4910;DHT22;2470;49.868;8.660;2023-09-30T08:42:53;18.90;99.90
4910;DHT22;2470;49.868;8.660;2023-09-30T08:45:19;18.90;99.90
4910;DHT22;2470;49.868;8.660;2023-09-30T08:47:45;19.00;99.90
4910;DHT22;2470;49.868;8.660;2023-09-30T08:50:11;19.00;99.90
4910;DHT22;2470;49.868;8.660;2023-09-30T08:52:41;19.00;99.90
4910;DHT22;2470;49.868;8.660;2023-09-30T08:55:08;19.00;99.90
4910;DHT22;2470;49.868;8.660;2023-09-30T08:57:37;19.10;99.90
4910;DHT22;2470;49.868;8.660;2023-09-30T09:00:05;19.00;99.90
4910;DHT22;2470;49.868;8.660;2023-09-30T09:02:34;19.10;99.90
4910;DHT22;2470;49.868;8.660;2023-09-30T09:05:00;19.20;99.90
4910;DHT22;2470;49.868;8.660;2023-09-30T09:07:26;19.30;99.90
4910;DHT22;2470;49.868;8.660;2023-09-30T09:10:11;19.30;99.90
4910;DHT22;2470;49.868;8.660;2023-09-30T09:12:39;19.30;99.90
4910;DHT22;2470;49.868;8.660;2023-09-30T09:15:06;19.30;99.90
4910;DHT22;2470;49.868;8.660;2023-09-30T09:17:45;19.40;99.90
4910;DHT22;2470;49.868;8.660;2023-09-30T09:20:13;19.40;99.90
4910;DHT22;2470;49.868;8.660;2023-09-30T09:22:45;19.30;99.90
4910;DHT22;2470;49.868;8.660;2023-09-30T09:25:11;19.30;99.90
4910;DHT22;2470;49.868;8.660;2023-09-30T09:27:37;19.30;99.90
4910;DHT22;2470;49.868;8.660;2023-09-30T09:30:21;19.40;99.90
4910;DHT22;2470;49.868;8.660;2023-09-30T09:33:04;19.40;99.90
4910;DHT22;2470;49.868;8.660;2023-09-30T09:35:33;19.30;99.90
4910;DHT22;2470;49.868;8.660;2023-09-30T09:38:04;19.40;99.90
4910;DHT22;2470;49.868;8.660;2023-09-30T09:40:32;19.40;99.90
4910;DHT22;2470;49.868;8.660;2023-09-30T09:42:58;19.40;99.90
4910;DHT22;2470;49.868;8.660;2023-09-30T09:45:26;19.40;99.90
4910;DHT22;2470;49.868;8.660;2023-09-30T09:47:53;19.40;99.90
4910;DHT22;2470;49.868;8.660;2023-09-30T09:50:20;19.50;99.90
4910;DHT22;2470;49.868;8.660;2023-09-30T09:52:48;19.50;99.90
4910;DHT22;2470;49.868;8.660;2023-09-30T09:55:17;19.50;99.90
4910;DHT22;2470;49.868;8.660;2023-09-30T09:57:43;19.60;99.90
4910;DHT22;2470;49.868;8.660;2023-09-30T10:00:16;19.60;99.90
4910;DHT22;2470;49.868;8.660;2023-09-30T10:02:42;19.60;99.90
4910;DHT22;2470;49.868;8.660;2023-09-30T10:05:08;19.80;99.90
4910;DHT22;2470;49.868;8.660;2023-09-30T10:07:37;19.80;99.90
4910;DHT22;2470;49.868;8.660;2023-09-30T10:10:12;19.90;99.90
4910;DHT22;2470;49.868;8.660;2023-09-30T10:12:39;19.90;99.90
4910;DHT22;2470;49.868;8.660;2023-09-30T10:18:15;20.00;98.90
4910;DHT22;2470;49.868;8.660;2023-09-30T10:20:42;20.00;98.10
4910;DHT22;2470;49.868;8.660;2023-09-30T10:23:29;19.90;98.50
4910;DHT22;2470;49.868;8.660;2023-09-30T10:31:22;20.10;98.00
4910;DHT22;2470;49.868;8.660;2023-09-30T10:36:30;20.10;97.90
4910;DHT22;2470;49.868;8.660;2023-09-30T10:38:56;20.10;97.10
4910;DHT22;2470;49.868;8.660;2023-09-30T10:46:51;20.30;97.40
4910;DHT22;2470;49.868;8.660;2023-09-30T10:49:29;20.40;97.40
4910;DHT22;2470;49.868;8.660;2023-09-30T10:51:58;20.50;97.00
4910;DHT22;2470;49.868;8.660;2023-09-30T10:54:31;20.60;96.80
4910;DHT22;2470;49.868;8.660;2023-09-30T10:56:58;20.70;95.60
4910;DHT22;2470;49.868;8.660;2023-09-30T10:59:30;20.60;95.10
4910;DHT22;2470;49.868;8.660;2023-09-30T11:01:56;20.70;95.60
4910;DHT22;2470;49.868;8.660;2023-09-30T11:04:22;20.80;95.20
4910;DHT22;2470;49.868;8.660;2023-09-30T11:06:48;20.80;95.00
4910;DHT22;2470;49.868;8.660;2023-09-30T11:09:20;20.90;94.70
4910;DHT22;2470;49.868;8.660;2023-09-30T11:11:49;21.00;94.40
4910;DHT22;2470;49.868;8.660;2023-09-30T11:14:19;21.00;93.90
4910;DHT22;2470;49.868;8.660;2023-09-30T11:16:45;21.20;94.10
4910;DHT22;2470;49.868;8.660;2023-09-30T11:19:14;21.20;93.50
4910;DHT22;2470;49.868;8.660;2023-09-30T11:21:43;21.20;93.00
4910;DHT22;2470;49.868;8.660;2023-09-30T11:24:09;21.30;93.00
4910;DHT22;2470;49.868;8.660;2023-09-30T11:26:35;21.30;92.20
4910;DHT22;2470;49.868;8.660;2023-09-30T11:29:09;21.20;92.30
4910;DHT22;2470;49.868;8.660;2023-09-30T11:31:46;21.30;93.00
4910;DHT22;2470;49.868;8.660;2023-09-30T11:34:15;21.50;92.90
4910;DHT22;2470;49.868;8.660;2023-09-30T11:36:48;21.70;91.60
4910;DHT22;2470;49.868;8.660;2023-09-30T11:39:25;21.80;91.50
4910;DHT22;2470;49.868;8.660;2023-09-30T11:41:51;22.00;92.00
4910;DHT22;2470;49.868;8.660;2023-09-30T11:44:18;22.20;91.40
4910;DHT22;2470;49.868;8.660;2023-09-30T11:47:02;22.30;90.60
4910;DHT22;2470;49.868;8.660;2023-09-30T11:49:36;22.40;89.10
4910;DHT22;2470;49.868;8.660;2023-09-30T11:52:11;22.50;88.00
4910;DHT22;2470;49.868;8.660;2023-09-30T11:54:40;22.60;85.10
4910;DHT22;2470;49.868;8.660;2023-09-30T11:57:11;22.50;86.50
4910;DHT22;2470;49.868;8.660;2023-09-30T11:59:37;22.40;87.30
4910;DHT22;2470;49.868;8.660;2023-09-30T12:02:05;22.30;86.70
4910;DHT22;2470;49.868;8.660;2023-09-30T12:04:37;22.60;86.10
4910;DHT22;2470;49.868;8.660;2023-09-30T12:07:03;23.10;85.60
4910;DHT22;2470;49.868;8.660;2023-09-30T12:09:29;23.70;84.10
4910;DHT22;2470;49.868;8.660;2023-09-30T12:11:55;24.30;84.50
4910;DHT22;2470;49.868;8.660;2023-09-30T12:14:23;24.90;80.90
4910;DHT22;2470;49.868;8.660;2023-09-30T12:16:49;25.60;75.80
4910;DHT22;2470;49.868;8.660;2023-09-30T12:19:16;26.00;71.60
4910;DHT22;2470;49.868;8.660;2023-09-30T12:21:43;26.20;70.10
4910;DHT22;2470;49.868;8.660;2023-09-30T12:24:12;26.50;72.20
4910;DHT22;2470;49.868;8.660;2023-09-30T12:26:44;26.70;70.50
4910;DHT22;2470;49.868;8.660;2023-09-30T12:29:17;27.10;69.20
4910;DHT22;2470;49.868;8.660;2023-09-30T12:31:46;27.90;67.20
4910;DHT22;2470;49.868;8.660;2023-09-30T12:34:14;28.40;66.00
4910;DHT22;2470;49.868;8.660;2023-09-30T12:36:40;28.70;65.10
4910;DHT22;2470;49.868;8.660;2023-09-30T12:39:07;29.20;64.70
4910;DHT22;2470;49.868;8.660;2023-09-30T12:41:43;30.30;58.90
4910;DHT22;2470;49.868;8.660;2023-09-30T12:44:10;30.90;57.90
4910;DHT22;2470;49.868;8.660;2023-09-30T12:46:36;32.10;52.70
4910;DHT22;2470;49.868;8.660;2023-09-30T12:49:09;33.10;49.60
4910;DHT22;2470;49.868;8.660;2023-09-30T12:51:35;33.70;46.20
4910;DHT22;2470;49.868;8.660;2023-09-30T12:54:02;34.20;44.80
4910;DHT22;2470;49.868;8.660;2023-09-30T12:56:27;35.00;43.70
4910;DHT22;2470;49.868;8.660;2023-09-30T12:58:56;35.50;43.20
4910;DHT22;2470;49.868;8.660;2023-09-30T13:01:22;36.00;42.70
4910;DHT22;2470;49.868;8.660;2023-09-30T13:03:48;36.70;42.90
4910;DHT22;2470;49.868;8.660;2023-09-30T13:06:14;37.60;41.30
4910;DHT22;2470;49.868;8.660;2023-09-30T13:08:41;38.30;40.70
4910;DHT22;2470;49.868;8.660;2023-09-30T13:11:07;39.20;38.80
4910;DHT22;2470;49.868;8.660;2023-09-30T13:13:33;39.60;37.00
4910;DHT22;2470;49.868;8.660;2023-09-30T13:16:00;39.60;37.30
4910;DHT22;2470;49.868;8.660;2023-09-30T13:18:26;40.00;36.50
4910;DHT22;2470;49.868;8.660;2023-09-30T13:20:51;40.00;35.80
4910;DHT22;2470;49.868;8.660;2023-09-30T13:23:20;39.70;35.00
4910;DHT22;2470;49.868;8.660;2023-09-30T13:25:46;38.90;35.30
4910;DHT22;2470;49.868;8.660;2023-09-30T13:28:12;38.80;35.40
4910;DHT22;2470;49.868;8.660;2023-09-30T13:30:38;39.40;35.20
4910;DHT22;2470;49.868;8.660;2023-09-30T13:33:04;39.50;34.00
4910;DHT22;2470;49.868;8.660;2023-09-30T13:35:30;39.00;33.20
4910;DHT22;2470;49.868;8.660;2023-09-30T13:37:57;39.30;33.50
4910;DHT22;2470;49.868;8.660;2023-09-30T13:40:22;39.40;33.50
4910;DHT22;2470;49.868;8.660;2023-09-30T13:42:48;39.30;32.60
4910;DHT22;2470;49.868;8.660;2023-09-30T13:45:14;38.80;32.60
4910;DHT22;2470;49.868;8.660;2023-09-30T13:47:42;38.00;32.90
4910;DHT22;2470;49.868;8.660;2023-09-30T13:50:08;37.00;33.60
4910;DHT22;2470;49.868;8.660;2023-09-30T13:52:34;35.90;34.60
4910;DHT22;2470;49.868;8.660;2023-09-30T13:55:00;34.70;34.90
4910;DHT22;2470;49.868;8.660;2023-09-30T13:57:26;33.20;36.70
4910;DHT22;2470;49.868;8.660;2023-09-30T13:59:51;31.50;38.30
4910;DHT22;2470;49.868;8.660;2023-09-30T14:02:17;30.10;39.10
4910;DHT22;2470;49.868;8.660;2023-09-30T14:04:42;29.10;41.50
4910;DHT22;2470;49.868;8.660;2023-09-30T14:07:09;28.50;42.60
4910;DHT22;2470;49.868;8.660;2023-09-30T14:09:34;28.20;43.30
4910;DHT22;2470;49.868;8.660;2023-09-30T14:12:00;28.10;43.60
4910;DHT22;2470;49.868;8.660;2023-09-30T14:14:26;27.80;44.30
4910;DHT22;2470;49.868;8.660;2023-09-30T14:16:52;27.20;44.90
4910;DHT22;2470;49.868;8.660;2023-09-30T14:19:17;26.60;46.00
4910;DHT22;2470;49.868;8.660;2023-09-30T14:21:43;26.20;47.20
4910;DHT22;2470;49.868;8.660;2023-09-30T14:24:09;25.80;47.60
4910;DHT22;2470;49.868;8.660;2023-09-30T14:26:35;25.60;48.30
4910;DHT22;2470;49.868;8.660;2023-09-30T14:29:01;25.50;48.30
4910;DHT22;2470;49.868;8.660;2023-09-30T14:31:27;25.30;48.70
4910;DHT22;2470;49.868;8.660;2023-09-30T14:33:52;25.10;48.50
4910;DHT22;2470;49.868;8.660;2023-09-30T14:36:18;24.80;49.20
4910;DHT22;2470;49.868;8.660;2023-09-30T14:38:45;24.60;50.50
4910;DHT22;2470;49.868;8.660;2023-09-30T14:41:11;24.40;51.30
4910;DHT22;2470;49.868;8.660;2023-09-30T14:43:38;24.30;51.20
4910;DHT22;2470;49.868;8.660;2023-09-30T14:46:04;24.20;51.60
4910;DHT22;2470;49.868;8.660;2023-09-30T14:48:30;24.10;52.00
4910;DHT22;2470;49.868;8.660;2023-09-30T14:50:55;24.10;52.10
4910;DHT22;2470;49.868;8.660;2023-09-30T14:53:22;24.00;51.60
4910;DHT22;2470;49.868;8.660;2023-09-30T14:55:48;23.80;52.00
4910;DHT22;2470;49.868;8.660;2023-09-30T14:58:13;23.70;53.80
4910;DHT22;2470;49.868;8.660;2023-09-30T15:00:39;23.60;53.80
4910;DHT22;2470;49.868;8.660;2023-09-30T15:03:04;23.30;53.00
4910;DHT22;2470;49.868;8.660;2023-09-30T15:05:31;23.30;54.10
4910;DHT22;2470;49.868;8.660;2023-09-30T15:07:56;23.20;54.00
4910;DHT22;2470;49.868;8.660;2023-09-30T15:10:22;23.20;53.40
4910;DHT22;2470;49.868;8.660;2023-09-30T15:12:47;23.20;54.60
4910;DHT22;2470;49.868;8.660;2023-09-30T15:15:13;23.20;54.70
4910;DHT22;2470;49.868;8.660;2023-09-30T15:17:39;23.20;55.80
4910;DHT22;2470;49.868;8.660;2023-09-30T15:20:05;23.10;55.60
4910;DHT22;2470;49.868;8.660;2023-09-30T15:22:32;22.90;54.70
4910;DHT22;2470;49.868;8.660;2023-09-30T15:24:58;22.80;54.70
4910;DHT22;2470;49.868;8.660;2023-09-30T15:27:23;22.70;55.00
4910;DHT22;2470;49.868;8.660;2023-09-30T15:30:05;22.60;55.80
4910;DHT22;2470;49.868;8.660;2023-09-30T15:32:49;22.50;56.20
4910;DHT22;2470;49.868;8.660;2023-09-30T15:35:14;22.50;56.60
4910;DHT22;2470;49.868;8.660;2023-09-30T15:37:40;22.40;57.40
4910;DHT22;2470;49.868;8.660;2023-09-30T15:40:06;22.40;57.60
4910;DHT22;2470;49.868;8.660;2023-09-30T15:42:33;22.40;57.60
4910;DHT22;2470;49.868;8.660;2023-09-30T15:44:58;22.40;57.60
4910;DHT22;2470;49.868;8.660;2023-09-30T15:47:24;22.30;58.00
4910;DHT22;2470;49.868;8.660;2023-09-30T15:49:50;22.20;57.60
4910;DHT22;2470;49.868;8.660;2023-09-30T15:52:16;22.10;57.20
4910;DHT22;2470;49.868;8.660;2023-09-30T15:54:41;22.00;56.90
4910;DHT22;2470;49.868;8.660;2023-09-30T15:57:07;22.00;57.00
4910;DHT22;2470;49.868;8.660;2023-09-30T15:59:34;22.00;57.70
4910;DHT22;2470;49.868;8.660;2023-09-30T16:01:59;21.90;57.90
4910;DHT22;2470;49.868;8.660;2023-09-30T16:04:25;21.80;57.70
4910;DHT22;2470;49.868;8.660;2023-09-30T16:06:50;21.80;58.40
4910;DHT22;2470;49.868;8.660;2023-09-30T16:09:16;21.70;59.30
4910;DHT22;2470;49.868;8.660;2023-09-30T16:11:42;21.60;59.70
4910;DHT22;2470;49.868;8.660;2023-09-30T16:14:07;21.60;60.70
4910;DHT22;2470;49.868;8.660;2023-09-30T16:16:33;21.50;61.30